createdAt,value
2017-06-04T00:00:12.150Z,0
2017-06-04T00:01:05.992Z,0
2017-06-04T00:02:00.008Z,0
2017-06-04T00:02:49.483Z,0
2017-06-04T00:03:43.110Z,0
2017-06-04T00:04:38.092Z,0
2017-06-04T00:05:32.150Z,0
2017-06-04T00:06:26.241Z,0
2017-06-04T00:07:14.239Z,0
2017-06-04T00:08:08.753Z,0
2017-06-04T00:09:02.495Z,0
2017-06-04T00:09:56.363Z,0
2017-06-04T00:10:50.665Z,0
2017-06-04T00:11:44.460Z,0
2017-06-04T00:12:38.937Z,0
2017-06-04T00:13:38.549Z,0
2017-06-04T00:14:33.557Z,0
2017-06-04T00:15:27.646Z,0
2017-06-04T00:16:23.161Z,0
2017-06-04T00:17:11.912Z,0
2017-06-04T00:18:07.254Z,0
2017-06-04T00:19:06.801Z,0
2017-06-04T00:20:00.825Z,0
2017-06-04T00:20:49.893Z,0
2017-06-04T00:21:44.351Z,0
2017-06-04T00:22:38.454Z,0
2017-06-04T00:23:32.151Z,0
2017-06-04T00:24:26.342Z,0
2017-06-04T00:25:20.368Z,0
2017-06-04T00:26:14.149Z,0
2017-06-04T00:27:08.405Z,0
2017-06-04T00:28:02.730Z,0
2017-06-04T00:28:57.797Z,0
2017-06-04T00:29:46.740Z,0
2017-06-04T00:30:35.844Z,0
2017-06-04T00:31:24.876Z,0
2017-06-04T00:32:30.884Z,0
2017-06-04T00:33:19.975Z,0
2017-06-04T00:34:13.809Z,0
2017-06-04T00:35:07.925Z,0
2017-06-04T00:36:09.089Z,0
2017-06-04T00:37:04.054Z,0
2017-06-04T00:37:58.145Z,0
2017-06-04T00:38:46.205Z,0
2017-06-04T00:39:34.177Z,0
2017-06-04T00:40:28.272Z,0
2017-06-04T00:41:28.457Z,0
2017-06-04T00:42:28.380Z,0
2017-06-04T00:43:28.338Z,0
2017-06-04T00:44:23.373Z,0
2017-06-04T00:45:23.432Z,0
2017-06-04T00:46:18.484Z,0
2017-06-04T00:47:18.101Z,0
2017-06-04T00:48:07.617Z,0
2017-06-04T00:48:56.491Z,0
2017-06-04T00:49:50.648Z,0
2017-06-04T00:50:50.682Z,0
2017-06-04T00:51:44.263Z,0
2017-06-04T00:52:33.790Z,0
2017-06-04T00:53:27.318Z,0
2017-06-04T00:54:27.341Z,0
2017-06-04T00:55:21.736Z,0
2017-06-04T00:56:10.434Z,0
2017-06-04T00:56:59.720Z,0
2017-06-04T00:57:49.093Z,0
2017-06-04T00:58:36.711Z,0
2017-06-04T00:59:26.077Z,0
2017-06-04T01:00:20.197Z,0
2017-06-04T01:01:20.077Z,0
2017-06-04T01:02:14.292Z,0
2017-06-04T01:03:03.313Z,0
2017-06-04T01:03:51.286Z,0
2017-06-04T01:04:39.285Z,0
2017-06-04T01:05:27.281Z,0
2017-06-04T01:06:15.484Z,0
2017-06-04T01:07:04.508Z,0
2017-06-04T01:07:52.530Z,0
2017-06-04T01:08:40.578Z,0
2017-06-04T01:09:40.638Z,0
2017-06-04T01:10:28.651Z,0
2017-06-04T01:11:28.801Z,0
2017-06-04T01:12:22.703Z,0
2017-06-04T01:13:23.648Z,0
2017-06-04T01:14:17.817Z,0
2017-06-04T01:15:06.793Z,0
2017-06-04T01:16:01.733Z,0
2017-06-04T01:16:56.976Z,0
2017-06-04T01:17:51.014Z,0
2017-06-04T01:18:39.947Z,0
2017-06-04T01:19:27.723Z,0
2017-06-04T01:20:22.135Z,0
2017-06-04T01:21:27.846Z,0
2017-06-04T01:22:28.061Z,0
2017-06-04T01:23:17.294Z,0
2017-06-04T01:24:05.268Z,0
2017-06-04T01:24:59.059Z,0
2017-06-04T01:25:46.879Z,0
2017-06-04T01:26:35.101Z,0
2017-06-04T01:27:24.425Z,0
2017-06-04T01:28:12.534Z,0
2017-06-04T01:29:07.049Z,0
2017-06-04T01:30:01.146Z,0
2017-06-04T01:30:49.152Z,0
2017-06-04T01:31:44.147Z,0
2017-06-04T01:32:38.744Z,0
2017-06-04T01:33:44.237Z,0
2017-06-04T01:34:38.279Z,0
2017-06-04T01:35:27.415Z,0
2017-06-04T01:36:15.556Z,0
2017-06-04T01:37:04.451Z,0
2017-06-04T01:37:58.986Z,0
2017-06-04T01:38:53.468Z,0
2017-06-04T01:39:42.563Z,0
2017-06-04T01:40:37.110Z,0
2017-06-04T01:41:25.657Z,0
2017-06-04T01:42:20.640Z,0
2017-06-04T01:43:16.133Z,0
2017-06-04T01:44:10.732Z,0
2017-06-04T01:45:04.797Z,0
2017-06-04T01:46:10.838Z,0
2017-06-04T01:46:59.867Z,0
2017-06-04T01:47:48.404Z,0
2017-06-04T01:48:49.370Z,0
2017-06-04T01:49:38.457Z,0
2017-06-04T01:50:27.528Z,0
2017-06-04T01:51:21.528Z,0
2017-06-04T01:52:16.516Z,0
2017-06-04T01:53:10.583Z,0
2017-06-04T01:54:05.637Z,0
2017-06-04T01:55:00.710Z,0
2017-06-04T01:56:00.750Z,0
2017-06-04T01:57:00.793Z,0
2017-06-04T01:57:49.862Z,0
2017-06-04T01:58:38.834Z,0
2017-06-04T01:59:39.884Z,0
2017-06-04T02:00:33.939Z,0
2017-06-04T02:01:22.934Z,0
2017-06-04T02:02:24.180Z,0
2017-06-04T02:03:24.015Z,0
2017-06-04T02:04:30.104Z,0
2017-06-04T02:05:19.135Z,0
2017-06-04T02:06:13.176Z,0
2017-06-04T02:07:07.252Z,0
2017-06-04T02:07:56.274Z,0
2017-06-04T02:08:56.081Z,0
2017-06-04T02:09:44.044Z,0
2017-06-04T02:10:33.317Z,0
2017-06-04T02:11:27.348Z,0
2017-06-04T02:12:22.401Z,0
2017-06-04T02:13:16.542Z,0
2017-06-04T02:14:10.447Z,0
2017-06-04T02:15:04.547Z,0
2017-06-04T02:16:04.099Z,0
2017-06-04T02:16:53.334Z,0
2017-06-04T02:17:47.451Z,0
2017-06-04T02:18:41.294Z,0
2017-06-04T02:19:42.262Z,0
2017-06-04T02:20:31.319Z,0
2017-06-04T02:21:20.407Z,0
2017-06-04T02:22:13.422Z,0
2017-06-04T02:23:08.820Z,0
2017-06-04T02:23:57.514Z,0
2017-06-04T02:24:52.514Z,0
2017-06-04T02:25:52.542Z,0
2017-06-04T02:26:46.786Z,0
2017-06-04T02:27:47.154Z,0
2017-06-04T02:28:35.656Z,0
2017-06-04T02:29:30.745Z,0
2017-06-04T02:30:19.729Z,0
2017-06-04T02:31:14.339Z,0
2017-06-04T02:32:07.834Z,0
2017-06-04T02:33:03.115Z,0
2017-06-04T02:33:56.937Z,0
2017-06-04T02:34:57.032Z,0
2017-06-04T02:35:52.098Z,0
2017-06-04T02:36:47.010Z,0
2017-06-04T02:37:47.064Z,0
2017-06-04T02:38:42.135Z,4
2017-06-04T02:39:36.184Z,4
2017-06-04T02:40:24.217Z,4
2017-06-04T02:41:18.230Z,4
2017-06-04T02:42:07.759Z,4
2017-06-04T02:42:55.778Z,4
2017-06-04T02:43:44.471Z,4
2017-06-04T02:44:39.490Z,8
2017-06-04T02:45:28.045Z,4
2017-06-04T02:46:21.447Z,8
2017-06-04T02:47:16.518Z,4
2017-06-04T02:48:05.578Z,8
2017-06-04T02:48:59.632Z,12
2017-06-04T02:49:59.653Z,12
2017-06-04T02:50:48.727Z,12
2017-06-04T02:51:36.730Z,12
2017-06-04T02:52:30.732Z,12
2017-06-04T02:53:19.837Z,16
2017-06-04T02:54:19.960Z,20
2017-06-04T02:55:13.877Z,20
2017-06-04T02:56:13.959Z,24
2017-06-04T02:57:09.046Z,24
2017-06-04T02:58:02.956Z,28
2017-06-04T02:58:57.044Z,32
2017-06-04T02:59:52.383Z,36
2017-06-04T03:00:46.332Z,40
2017-06-04T03:01:41.157Z,40
2017-06-04T03:02:41.185Z,44
2017-06-04T03:03:35.312Z,52
2017-06-04T03:04:35.259Z,56
2017-06-04T03:05:30.376Z,64
2017-06-04T03:06:30.427Z,68
2017-06-04T03:07:24.399Z,72
2017-06-04T03:08:24.626Z,76
2017-06-04T03:09:19.618Z,80
2017-06-04T03:10:13.451Z,92
2017-06-04T03:11:08.554Z,92
2017-06-04T03:12:02.546Z,100
2017-06-04T03:12:57.846Z,108
2017-06-04T03:13:57.595Z,112
2017-06-04T03:14:46.659Z,120
2017-06-04T03:15:35.737Z,128
2017-06-04T03:16:30.731Z,136
2017-06-04T03:17:24.812Z,144
2017-06-04T03:18:19.262Z,156
2017-06-04T03:19:07.854Z,168
2017-06-04T03:20:01.929Z,184
2017-06-04T03:20:49.975Z,200
2017-06-04T03:21:39.492Z,220
2017-06-04T03:22:27.027Z,240
2017-06-04T03:23:16.086Z,264
2017-06-04T03:24:04.796Z,284
2017-06-04T03:24:52.240Z,308
2017-06-04T03:25:40.242Z,324
2017-06-04T03:26:29.243Z,348
2017-06-04T03:27:17.368Z,368
2017-06-04T03:28:05.371Z,392
2017-06-04T03:28:53.411Z,420
2017-06-04T03:29:41.793Z,448
2017-06-04T03:30:29.527Z,468
2017-06-04T03:31:17.537Z,496
2017-06-04T03:32:05.595Z,516
2017-06-04T03:32:54.640Z,532
2017-06-04T03:33:42.911Z,544
2017-06-04T03:34:32.054Z,560
2017-06-04T03:35:19.810Z,568
2017-06-04T03:36:07.840Z,580
2017-06-04T03:36:56.832Z,588
2017-06-04T03:37:44.962Z,596
2017-06-04T03:38:34.353Z,604
2017-06-04T03:39:22.011Z,616
2017-06-04T03:40:10.071Z,632
2017-06-04T03:40:59.137Z,648
2017-06-04T03:41:47.125Z,664
2017-06-04T03:42:35.766Z,688
2017-06-04T03:43:24.222Z,708
2017-06-04T03:44:12.559Z,736
2017-06-04T03:45:01.530Z,768
2017-06-04T03:45:50.604Z,804
2017-06-04T03:46:45.817Z,844
2017-06-04T03:47:39.943Z,892
2017-06-04T03:48:34.636Z,940
2017-06-04T03:49:28.806Z,980
2017-06-04T03:50:22.768Z,1028
2017-06-04T03:51:17.690Z,1064
2017-06-04T03:52:11.659Z,1104
2017-06-04T03:53:00.663Z,1140
2017-06-04T03:53:54.819Z,1168
2017-06-04T03:54:43.726Z,1188
2017-06-04T03:55:32.820Z,1220
2017-06-04T03:56:26.840Z,1236
2017-06-04T03:57:21.284Z,1276
2017-06-04T03:58:09.931Z,1308
2017-06-04T03:58:58.229Z,1348
2017-06-04T03:59:52.313Z,1404
2017-06-04T04:00:52.035Z,1472
2017-06-04T04:01:47.072Z,1532
2017-06-04T04:02:42.236Z,1592
2017-06-04T04:03:42.154Z,1656
2017-06-04T04:04:37.523Z,1700
2017-06-04T04:05:32.252Z,1740
2017-06-04T04:06:26.563Z,1780
2017-06-04T04:07:27.314Z,1828
2017-06-04T04:08:16.923Z,1856
2017-06-04T04:09:10.428Z,1888
2017-06-04T04:10:10.460Z,1912
2017-06-04T04:11:10.453Z,1936
2017-06-04T04:11:59.531Z,1996
2017-06-04T04:12:53.552Z,2076
2017-06-04T04:13:54.153Z,2148
2017-06-04T04:14:53.649Z,2304
2017-06-04T04:15:53.661Z,2404
2017-06-04T04:16:48.728Z,2464
2017-06-04T04:17:43.721Z,2564
2017-06-04T04:18:43.813Z,2728
2017-06-04T04:19:37.806Z,2836
2017-06-04T04:20:32.870Z,3064
2017-06-04T04:21:20.955Z,3144
2017-06-04T04:22:08.921Z,3188
2017-06-04T04:22:57.298Z,3212
2017-06-04T04:23:51.301Z,3324
2017-06-04T04:24:39.124Z,3440
2017-06-04T04:25:28.151Z,3512
2017-06-04T04:26:16.160Z,3568
2017-06-04T04:27:05.233Z,3572
2017-06-04T04:28:00.267Z,3608
2017-06-04T04:28:54.296Z,3640
2017-06-04T04:29:55.431Z,3760
2017-06-04T04:30:50.415Z,3816
2017-06-04T04:31:50.402Z,3892
2017-06-04T04:32:50.876Z,3972
2017-06-04T04:33:50.470Z,4028
2017-06-04T04:34:50.557Z,4060
2017-06-04T04:35:39.633Z,4116
2017-06-04T04:36:35.057Z,4192
2017-06-04T04:37:23.639Z,4264
2017-06-04T04:38:12.816Z,4328
2017-06-04T04:39:06.821Z,4412
2017-06-04T04:40:06.909Z,4500
2017-06-04T04:41:02.133Z,4580
2017-06-04T04:42:02.838Z,4664
2017-06-04T04:43:03.131Z,4740
2017-06-04T04:43:57.961Z,4816
2017-06-04T04:44:53.092Z,4860
2017-06-04T04:45:47.059Z,4920
2017-06-04T04:46:35.470Z,5004
2017-06-04T04:47:29.062Z,5076
2017-06-04T04:48:23.499Z,5112
2017-06-04T04:49:17.160Z,5092
2017-06-04T04:50:17.246Z,5132
2017-06-04T04:51:11.267Z,5172
2017-06-04T04:52:17.324Z,5272
2017-06-04T04:53:11.327Z,5440
2017-06-04T04:54:12.329Z,5596
2017-06-04T04:55:12.410Z,5684
2017-06-04T04:56:07.442Z,5744
2017-06-04T04:57:07.695Z,5796
2017-06-04T04:58:07.515Z,5828
2017-06-04T04:59:07.930Z,5808
2017-06-04T05:00:01.594Z,5856
2017-06-04T05:01:01.726Z,5968
2017-06-04T05:01:56.636Z,5972
2017-06-04T05:02:51.717Z,6032
2017-06-04T05:03:40.314Z,6148
2017-06-04T05:04:39.829Z,6232
2017-06-04T05:05:27.844Z,6344
2017-06-04T05:06:27.862Z,6484
2017-06-04T05:07:22.936Z,6636
2017-06-04T05:08:16.949Z,6788
2017-06-04T05:09:11.000Z,6956
2017-06-04T05:10:05.039Z,7132
2017-06-04T05:11:06.062Z,7356
2017-06-04T05:12:07.151Z,7572
2017-06-04T05:13:07.169Z,7800
2017-06-04T05:14:02.219Z,8004
2017-06-04T05:15:02.285Z,8228
2017-06-04T05:15:57.325Z,8368
2017-06-04T05:16:52.709Z,8540
2017-06-04T05:17:46.596Z,8728
2017-06-04T05:18:46.440Z,9032
2017-06-04T05:19:40.414Z,9228
2017-06-04T05:20:29.559Z,9456
2017-06-04T05:21:23.919Z,9744
2017-06-04T05:22:11.560Z,9984
2017-06-04T05:23:05.851Z,10248
2017-06-04T05:24:00.165Z,10516
2017-06-04T05:24:54.681Z,10712
2017-06-04T05:25:42.931Z,10888
2017-06-04T05:26:36.797Z,11156
2017-06-04T05:27:24.827Z,11212
2017-06-04T05:28:14.404Z,11404
2017-06-04T05:29:13.973Z,11532
2017-06-04T05:30:09.349Z,11628
2017-06-04T05:30:58.425Z,11648
2017-06-04T05:31:47.061Z,11916
2017-06-04T05:32:47.365Z,12084
2017-06-04T05:33:42.513Z,12244
2017-06-04T05:34:36.164Z,12388
2017-06-04T05:35:25.237Z,12448
2017-06-04T05:36:20.733Z,12524
2017-06-04T05:37:15.747Z,12600
2017-06-04T05:38:09.763Z,12828
2017-06-04T05:38:57.394Z,13076
2017-06-04T05:39:45.901Z,13276
2017-06-04T05:40:46.870Z,13628
2017-06-04T05:41:46.940Z,13992
2017-06-04T05:42:42.080Z,14256
2017-06-04T05:43:36.037Z,14512
2017-06-04T05:44:36.120Z,14816
2017-06-04T05:45:24.086Z,14992
2017-06-04T05:46:12.127Z,15296
2017-06-04T05:47:06.225Z,15368
2017-06-04T05:48:07.273Z,15536
2017-06-04T05:49:08.296Z,15556
2017-06-04T05:50:02.278Z,15808
2017-06-04T05:50:51.324Z,15968
2017-06-04T05:51:46.326Z,15776
2017-06-04T05:52:41.617Z,15904
2017-06-04T05:53:35.511Z,15744
2017-06-04T05:54:29.490Z,15904
2017-06-04T05:55:29.581Z,15840
2017-06-04T05:56:24.613Z,15904
2017-06-04T05:57:24.685Z,15904
2017-06-04T05:58:25.654Z,15420
2017-06-04T05:59:26.728Z,15228
2017-06-04T06:00:20.974Z,15020
2017-06-04T06:01:20.993Z,14912
2017-06-04T06:02:15.929Z,14848
2017-06-04T06:03:10.898Z,14436
2017-06-04T06:03:58.952Z,14076
2017-06-04T06:04:53.972Z,14040
2017-06-04T06:05:42.109Z,14100
2017-06-04T06:06:36.084Z,14312
2017-06-04T06:07:30.132Z,14400
2017-06-04T06:08:19.204Z,14440
2017-06-04T06:09:07.307Z,14436
2017-06-04T06:10:01.277Z,14684
2017-06-04T06:10:49.086Z,14880
2017-06-04T06:11:43.205Z,15016
2017-06-04T06:12:38.092Z,15128
2017-06-04T06:13:27.432Z,15248
2017-06-04T06:14:16.548Z,15272
2017-06-04T06:15:04.578Z,15220
2017-06-04T06:15:53.632Z,15052
2017-06-04T06:16:53.659Z,14888
2017-06-04T06:17:47.713Z,14708
2017-06-04T06:18:48.733Z,15172
2017-06-04T06:19:49.757Z,16000
2017-06-04T06:20:44.773Z,16832
2017-06-04T06:21:39.809Z,17504
2017-06-04T06:22:33.918Z,17984
2017-06-04T06:23:33.989Z,18016
2017-06-04T06:24:29.004Z,18208
2017-06-04T06:25:23.071Z,18592
2017-06-04T06:26:17.635Z,18784
2017-06-04T06:27:07.211Z,18816
2017-06-04T06:27:55.137Z,18528
2017-06-04T06:28:44.289Z,18432
2017-06-04T06:29:32.245Z,18304
2017-06-04T06:30:33.337Z,19168
2017-06-04T06:31:21.351Z,20608
2017-06-04T06:32:15.383Z,21600
2017-06-04T06:33:10.153Z,22112
2017-06-04T06:33:59.269Z,22368
2017-06-04T06:34:48.639Z,22048
2017-06-04T06:35:36.617Z,21184
2017-06-04T06:36:30.701Z,21696
2017-06-04T06:37:30.643Z,23264
2017-06-04T06:38:18.763Z,24320
2017-06-04T06:39:12.760Z,24192
2017-06-04T06:40:06.846Z,24512
2017-06-04T06:40:56.002Z,24576
2017-06-04T06:41:50.921Z,24672
2017-06-04T06:42:50.988Z,25600
2017-06-04T06:43:51.097Z,26752
2017-06-04T06:44:46.084Z,26656
2017-06-04T06:45:40.086Z,26624
2017-06-04T06:46:34.147Z,26272
2017-06-04T06:47:35.181Z,28448
2017-06-04T06:48:29.250Z,27136
2017-06-04T06:49:24.218Z,24864
2017-06-04T06:50:18.313Z,25792
2017-06-04T06:51:12.120Z,23648
2017-06-04T06:52:06.495Z,24128
2017-06-04T06:53:06.571Z,26528
2017-06-04T06:54:00.583Z,26528
2017-06-04T06:54:54.424Z,25024
2017-06-04T06:55:49.585Z,27360
2017-06-04T06:56:38.262Z,29056
2017-06-04T06:57:32.414Z,28704
2017-06-04T06:58:27.755Z,30880
2017-06-04T06:59:27.763Z,30016
2017-06-04T07:00:22.824Z,25696
2017-06-04T07:01:17.863Z,26656
2017-06-04T07:02:18.037Z,31392
2017-06-04T07:03:12.070Z,31232
2017-06-04T07:04:01.085Z,29920
2017-06-04T07:05:01.138Z,32416
2017-06-04T07:05:49.088Z,33280
2017-06-04T07:06:48.765Z,32416
2017-06-04T07:07:38.259Z,29728
2017-06-04T07:08:31.988Z,26592
2017-06-04T07:09:27.364Z,29408
2017-06-04T07:10:27.244Z,36800
2017-06-04T07:11:21.173Z,38336
2017-06-04T07:12:21.316Z,40704
2017-06-04T07:13:10.513Z,41728
2017-06-04T07:14:04.649Z,40800
2017-06-04T07:14:58.647Z,42368
2017-06-04T07:15:52.680Z,45184
2017-06-04T07:16:47.646Z,47040
2017-06-04T07:17:47.681Z,47232
2017-06-04T07:18:42.796Z,44256
2017-06-04T07:19:30.880Z,43488
2017-06-04T07:20:31.865Z,39552
2017-06-04T07:21:31.885Z,38720
2017-06-04T07:22:26.966Z,42080
2017-06-04T07:23:21.102Z,41888
2017-06-04T07:24:15.800Z,46272
2017-06-04T07:25:05.178Z,43968
2017-06-04T07:25:58.802Z,42112
2017-06-04T07:26:54.275Z,44352
2017-06-04T07:27:48.318Z,44544
2017-06-04T07:28:48.402Z,46848
2017-06-04T07:29:42.424Z,48352
2017-06-04T07:30:37.594Z,46400
2017-06-04T07:31:26.582Z,46592
2017-06-04T07:32:26.545Z,51872
2017-06-04T07:33:15.613Z,50048
2017-06-04T07:34:10.720Z,48960
2017-06-04T07:35:10.789Z,46112
2017-06-04T07:35:58.843Z,46912
2017-06-04T07:36:46.850Z,49888
2017-06-04T07:37:46.937Z,55776
2017-06-04T07:38:41.001Z,63072
2017-06-04T07:39:41.010Z,60480
2017-06-04T07:40:30.055Z,52192
2017-06-04T07:41:24.157Z,45856
2017-06-04T07:42:24.163Z,58336
2017-06-04T07:43:19.249Z,50944
2017-06-04T07:44:13.258Z,43872
2017-06-04T07:45:13.325Z,56000
2017-06-04T07:46:07.437Z,53152
2017-06-04T07:47:01.516Z,49024
2017-06-04T07:47:55.494Z,51200
2017-06-04T07:48:55.567Z,51552
2017-06-04T07:49:49.639Z,53888
2017-06-04T07:50:49.675Z,46240
2017-06-04T07:51:37.735Z,46176
2017-06-04T07:52:37.704Z,52096
2017-06-04T07:53:32.750Z,52320
2017-06-04T07:54:21.929Z,51808
2017-06-04T07:55:21.934Z,52768
2017-06-04T07:56:15.979Z,58176
2017-06-04T07:57:10.035Z,60256
2017-06-04T07:58:05.124Z,56896
2017-06-04T07:58:59.162Z,46528
2017-06-04T07:59:53.232Z,44864
2017-06-04T08:00:47.298Z,38880
2017-06-04T08:01:36.333Z,40320
2017-06-04T08:02:25.429Z,42368
2017-06-04T08:03:25.441Z,45152
2017-06-04T08:04:19.478Z,50592
2017-06-04T08:05:19.531Z,51776
2017-06-04T08:06:07.576Z,55168
2017-06-04T08:06:56.670Z,59488
2017-06-04T08:07:51.731Z,62464
2017-06-04T08:08:46.791Z,59520
2017-06-04T08:09:35.842Z,62496
2017-06-04T08:10:29.872Z,60128
2017-06-04T08:11:23.956Z,53824
2017-06-04T08:12:17.995Z,55392
2017-06-04T08:13:07.094Z,51328
2017-06-04T08:13:56.152Z,50176
2017-06-04T08:14:50.156Z,42272
2017-06-04T08:15:45.224Z,58624
2017-06-04T08:16:34.294Z,55200
2017-06-04T08:17:23.334Z,60768
2017-06-04T08:18:12.418Z,57664
2017-06-04T08:19:01.636Z,53248
2017-06-04T08:19:50.529Z,55648
2017-06-04T08:20:39.583Z,55552
2017-06-04T08:21:33.627Z,51264
2017-06-04T08:22:27.702Z,54720
2017-06-04T08:23:21.796Z,49536
2017-06-04T08:24:10.831Z,60128
2017-06-04T08:24:58.883Z,57984
2017-06-04T08:25:53.961Z,71808
2017-06-04T08:26:42.966Z,70016
2017-06-04T08:27:32.084Z,31488
2017-06-04T08:28:27.073Z,22368
2017-06-04T08:29:16.182Z,35104
2017-06-04T08:30:05.217Z,87200
2017-06-04T08:31:05.326Z,83520
2017-06-04T08:31:59.338Z,50656
2017-06-04T08:32:54.376Z,23360
2017-06-04T08:33:49.487Z,49472
2017-06-04T08:34:38.672Z,83392
2017-06-04T08:35:32.582Z,82176
2017-06-04T08:36:26.600Z,87008
2017-06-04T08:37:15.695Z,93088
2017-06-04T08:38:09.752Z,80544
2017-06-04T08:38:58.818Z,28480
2017-06-04T08:39:52.850Z,25792
2017-06-04T08:40:41.979Z,32384
2017-06-04T08:41:29.981Z,85760
2017-06-04T08:42:25.075Z,69792
2017-06-04T08:43:19.098Z,63456
2017-06-04T08:44:13.148Z,63008
2017-06-04T08:45:07.232Z,86944
2017-06-04T08:46:01.282Z,88128
2017-06-04T08:46:55.336Z,87360
2017-06-04T08:47:50.380Z,85376
2017-06-04T08:48:44.427Z,79712
2017-06-04T08:49:38.557Z,29760
2017-06-04T08:50:33.705Z,29248
2017-06-04T08:51:27.672Z,32416
2017-06-04T08:52:22.670Z,66432
2017-06-04T08:53:16.786Z,33344
2017-06-04T08:54:04.830Z,24864
2017-06-04T08:55:04.847Z,25184
2017-06-04T08:55:53.227Z,26592
2017-06-04T08:56:46.942Z,75040
2017-06-04T08:57:42.049Z,32992
2017-06-04T08:58:36.130Z,24032
2017-06-04T08:59:31.149Z,66240
2017-06-04T09:00:25.235Z,75136
2017-06-04T09:01:19.286Z,75584
2017-06-04T09:02:13.318Z,74496
2017-06-04T09:03:02.365Z,76544
2017-06-04T09:03:51.504Z,78176
2017-06-04T09:04:40.498Z,82560
2017-06-04T09:05:35.586Z,86880
2017-06-04T09:06:29.779Z,87040
2017-06-04T09:07:23.710Z,87072
2017-06-04T09:08:17.773Z,24512
2017-06-04T09:09:05.824Z,21920
2017-06-04T09:09:59.828Z,19872
2017-06-04T09:10:53.941Z,19360
2017-06-04T09:11:47.999Z,20000
2017-06-04T09:12:42.050Z,21088
2017-06-04T09:13:36.074Z,22496
2017-06-04T09:14:25.139Z,22656
2017-06-04T09:15:20.182Z,22752
2017-06-04T09:16:20.307Z,59488
2017-06-04T09:17:15.336Z,67488
2017-06-04T09:18:04.351Z,64448
2017-06-04T09:19:04.437Z,66880
2017-06-04T09:19:53.490Z,71328
2017-06-04T09:20:47.502Z,76928
2017-06-04T09:21:41.623Z,83392
2017-06-04T09:22:29.828Z,88864
2017-06-04T09:23:24.704Z,91232
2017-06-04T09:24:19.793Z,89376
2017-06-04T09:25:14.831Z,88704
2017-06-04T09:26:14.944Z,28640
2017-06-04T09:27:03.911Z,22464
2017-06-04T09:27:58.026Z,20608
2017-06-04T09:28:47.081Z,21824
2017-06-04T09:29:42.126Z,64384
2017-06-04T09:30:36.192Z,82304
2017-06-04T09:31:24.262Z,26944
2017-06-04T09:32:19.301Z,24288
2017-06-04T09:33:13.350Z,83104
2017-06-04T09:34:02.446Z,48512
2017-06-04T09:34:56.459Z,83872
2017-06-04T09:35:51.527Z,82112
2017-06-04T09:36:40.608Z,82720
2017-06-04T09:37:35.683Z,83904
2017-06-04T09:38:24.945Z,83680
2017-06-04T09:39:18.801Z,85600
2017-06-04T09:40:18.871Z,27392
2017-06-04T09:41:06.917Z,93536
2017-06-04T09:42:06.945Z,97440
2017-06-04T09:43:01.045Z,73920
2017-06-04T09:43:55.121Z,87104
2017-06-04T09:44:49.123Z,22496
2017-06-04T09:45:43.217Z,19712
2017-06-04T09:46:37.286Z,20064
2017-06-04T09:47:37.367Z,21184
2017-06-04T09:48:31.429Z,23936
2017-06-04T09:49:19.423Z,25984
2017-06-04T09:50:14.507Z,27648
2017-06-04T09:51:08.589Z,30080
2017-06-04T09:52:03.627Z,28576
2017-06-04T09:52:57.659Z,27424
2017-06-04T09:53:51.752Z,27072
2017-06-04T09:54:45.873Z,27872
2017-06-04T09:55:45.866Z,32480
2017-06-04T09:56:34.961Z,91744
2017-06-04T09:57:23.964Z,99104
2017-06-04T09:58:12.050Z,104096
2017-06-04T09:59:01.121Z,97408
2017-06-04T09:59:55.131Z,91680
2017-06-04T10:00:49.186Z,86720
2017-06-04T10:01:49.183Z,86720
2017-06-04T10:02:43.321Z,87776
2017-06-04T10:03:37.407Z,92832
2017-06-04T10:04:31.437Z,98720
2017-06-04T10:05:26.512Z,104800
2017-06-04T10:06:21.551Z,30560
2017-06-04T10:07:21.564Z,28960
2017-06-04T10:08:15.663Z,205280
2017-06-04T10:09:04.744Z,102432
2017-06-04T10:09:58.837Z,145248
2017-06-04T10:10:52.937Z,84288
2017-06-04T10:11:46.946Z,97184
2017-06-04T10:12:35.957Z,100576
2017-06-04T10:13:24.071Z,101216
2017-06-04T10:14:12.102Z,27968
2017-06-04T10:15:00.176Z,28256
2017-06-04T10:15:54.223Z,33568
2017-06-04T10:16:49.260Z,45536
2017-06-04T10:17:44.371Z,25408
2017-06-04T10:18:38.398Z,27520
2017-06-04T10:19:26.461Z,20384
2017-06-04T10:20:21.482Z,19296
2017-06-04T10:21:15.573Z,51424
2017-06-04T10:22:15.616Z,29696
2017-06-04T10:23:10.653Z,102464
2017-06-04T10:24:05.734Z,98816
2017-06-04T10:24:54.847Z,97664
2017-06-04T10:25:43.843Z,98048
2017-06-04T10:26:37.946Z,96256
2017-06-04T10:27:26.934Z,95456
2017-06-04T10:28:21.023Z,95136
2017-06-04T10:29:09.130Z,94592
2017-06-04T10:30:03.162Z,94144
2017-06-04T10:30:57.182Z,93504
2017-06-04T10:31:57.321Z,92064
2017-06-04T10:32:45.419Z,94592
2017-06-04T10:33:40.441Z,87872
2017-06-04T10:34:34.508Z,87328
2017-06-04T10:35:28.572Z,27104
2017-06-04T10:36:23.693Z,82784
2017-06-04T10:37:18.703Z,87296
2017-06-04T10:38:12.754Z,88864
2017-06-04T10:39:00.831Z,88832
2017-06-04T10:39:55.849Z,88160
2017-06-04T10:40:55.949Z,85408
2017-06-04T10:41:50.998Z,89088
2017-06-04T10:42:39.132Z,91776
2017-06-04T10:43:28.133Z,91584
2017-06-04T10:44:16.165Z,94144
2017-06-04T10:45:05.254Z,96128
2017-06-04T10:46:00.352Z,95424
2017-06-04T10:46:48.391Z,29760
2017-06-04T10:47:42.478Z,85504
2017-06-04T10:48:31.535Z,97088
2017-06-04T10:49:20.571Z,99136
2017-06-04T10:50:20.615Z,103680
2017-06-04T10:51:15.731Z,104320
2017-06-04T10:52:09.741Z,92448
2017-06-04T10:53:03.868Z,104512
2017-06-04T10:53:58.884Z,28544
2017-06-04T10:54:47.929Z,31904
2017-06-04T10:55:43.029Z,40416
2017-06-04T10:56:32.059Z,114880
2017-06-04T10:57:26.104Z,112384
2017-06-04T10:58:20.284Z,115200
2017-06-04T10:59:14.207Z,43776
2017-06-04T11:00:03.321Z,100640
2017-06-04T11:00:57.345Z,25568
2017-06-04T11:01:51.416Z,26080
2017-06-04T11:02:46.542Z,23904
2017-06-04T11:03:40.554Z,26112
2017-06-04T11:04:35.617Z,27008
2017-06-04T11:05:29.622Z,98656
2017-06-04T11:06:18.776Z,108896
2017-06-04T11:07:07.804Z,108128
2017-06-04T11:07:56.856Z,110720
2017-06-04T11:08:44.896Z,34528
2017-06-04T11:09:46.011Z,36512
2017-06-04T11:10:34.013Z,46720
2017-06-04T11:11:23.107Z,50304
2017-06-04T11:12:18.130Z,63008
2017-06-04T11:13:07.206Z,108448
2017-06-04T11:14:01.339Z,37184
2017-06-04T11:14:50.344Z,79648
2017-06-04T11:15:44.435Z,18976
2017-06-04T11:16:38.457Z,19936
2017-06-04T11:17:32.510Z,25824
2017-06-04T11:18:20.591Z,27104
2017-06-04T11:19:14.655Z,28544
2017-06-04T11:20:02.722Z,28832
2017-06-04T11:20:50.809Z,22240
2017-06-04T11:21:39.847Z,20192
2017-06-04T11:22:33.953Z,38368
2017-06-04T11:23:29.008Z,31744
2017-06-04T11:24:24.012Z,29376
2017-06-04T11:25:19.106Z,28640
2017-06-04T11:26:13.102Z,29120
2017-06-04T11:27:02.219Z,29056
2017-06-04T11:27:50.523Z,28064
2017-06-04T11:28:39.311Z,26752
2017-06-04T11:29:33.465Z,25088
2017-06-04T11:30:22.454Z,22976
2017-06-04T11:31:22.495Z,21344
2017-06-04T11:32:16.558Z,20672
2017-06-04T11:33:04.656Z,20288
2017-06-04T11:33:58.640Z,17536
2017-06-04T11:34:52.747Z,18560
2017-06-04T11:35:47.783Z,17216
2017-06-04T11:36:41.807Z,16416
2017-06-04T11:37:41.907Z,15164
2017-06-04T11:38:30.974Z,14488
2017-06-04T11:39:31.045Z,13728
2017-06-04T11:40:25.120Z,11972
2017-06-04T11:41:20.107Z,11220
2017-06-04T11:42:14.132Z,10512
2017-06-04T11:43:14.225Z,10276
2017-06-04T11:44:08.236Z,10144
2017-06-04T11:45:08.259Z,10392
2017-06-04T11:46:02.512Z,6060
2017-06-04T11:46:50.435Z,5856
2017-06-04T11:47:50.667Z,9188
2017-06-04T11:48:44.543Z,8372
2017-06-04T11:49:44.534Z,7300
2017-06-04T11:50:38.615Z,6444
2017-06-04T11:51:38.601Z,5736
2017-06-04T11:52:33.735Z,5252
2017-06-04T11:53:22.756Z,4864
2017-06-04T11:54:16.844Z,4536
2017-06-04T11:55:16.852Z,4280
2017-06-04T11:56:11.830Z,4172
2017-06-04T11:57:06.919Z,4084
2017-06-04T11:58:06.672Z,4180
2017-06-04T11:59:00.950Z,4416
2017-06-04T11:59:56.025Z,4904